createdAt,value
2022-12-29T00:00:06.321Z,84.19
2022-12-29T00:01:06.411Z,84.15
2022-12-29T00:02:06.339Z,84.15
2022-12-29T00:03:06.417Z,84.05
2022-12-29T00:04:11.303Z,84.15
2022-12-29T00:05:07.257Z,84.15
2022-12-29T00:06:06.241Z,84.25
2022-12-29T00:07:06.234Z,84.25
2022-12-29T00:08:06.234Z,84.36
2022-12-29T00:09:06.312Z,84.46
2022-12-29T00:10:06.195Z,84.66
2022-12-29T00:11:06.185Z,84.97
2022-12-29T00:12:06.175Z,85.17
2022-12-29T00:13:06.176Z,85.38
2022-12-29T00:14:06.133Z,85.79
2022-12-29T00:15:06.119Z,85.89
2022-12-29T00:16:06.168Z,85.99
2022-12-29T00:17:06.100Z,86.30
2022-12-29T00:18:06.107Z,86.40
2022-12-29T00:19:06.069Z,86.51
2022-12-29T00:20:06.051Z,86.71
2022-12-29T00:21:06.060Z,86.96
2022-12-29T00:22:06.010Z,87.26
2022-12-29T00:23:06.030Z,87.57
2022-12-29T00:24:06.023Z,87.77
2022-12-29T00:25:06.004Z,87.77
2022-12-29T00:26:05.963Z,87.88
2022-12-29T00:27:05.954Z,87.98
2022-12-29T00:28:07.256Z,88.18
2022-12-29T00:29:05.931Z,88.49
2022-12-29T00:30:05.936Z,88.70
2022-12-29T00:31:05.920Z,89.00
2022-12-29T00:32:05.876Z,89.21
2022-12-29T00:33:05.980Z,89.42
2022-12-29T00:34:05.850Z,89.42
2022-12-29T00:35:05.844Z,89.51
2022-12-29T00:36:05.820Z,89.72
2022-12-29T00:37:05.812Z,89.92
2022-12-29T00:38:05.828Z,90.23
2022-12-29T00:39:05.791Z,90.37
2022-12-29T00:40:05.788Z,90.89
2022-12-29T00:41:05.763Z,91.09
2022-12-29T00:42:05.739Z,91.50
2022-12-29T00:43:05.745Z,91.82
2022-12-29T00:44:05.759Z,92.02
2022-12-29T00:45:05.780Z,92.12
2022-12-29T00:46:05.767Z,92.43
2022-12-29T00:47:05.782Z,92.43
2022-12-29T00:48:05.671Z,92.63
2022-12-29T00:49:05.658Z,92.94
2022-12-29T00:50:05.639Z,93.25
2022-12-29T00:51:05.620Z,93.35
2022-12-29T00:52:05.625Z,93.66
2022-12-29T00:53:05.599Z,93.86
2022-12-29T00:54:05.613Z,94.01
2022-12-29T00:55:05.574Z,94.21
2022-12-29T00:56:05.552Z,94.42
2022-12-29T00:57:05.600Z,94.52
2022-12-29T00:58:05.544Z,94.73
2022-12-29T00:59:05.522Z,94.73
2022-12-29T01:00:05.514Z,94.83
2022-12-29T01:01:05.568Z,94.83
2022-12-29T01:02:05.600Z,94.93
2022-12-29T01:03:05.622Z,95.03
2022-12-29T01:04:05.484Z,95.03
2022-12-29T01:05:05.431Z,95.14
2022-12-29T01:06:05.411Z,95.14
2022-12-29T01:07:05.396Z,95.14
2022-12-29T01:08:05.401Z,95.14
2022-12-29T01:09:05.410Z,95.14
2022-12-29T01:10:05.380Z,95.03
2022-12-29T01:11:05.353Z,94.93
2022-12-29T01:12:05.334Z,95.03
2022-12-29T01:13:05.334Z,95.03
2022-12-29T01:14:05.312Z,95.14
2022-12-29T01:15:05.307Z,95.14
2022-12-29T01:16:05.312Z,95.14
2022-12-29T01:17:05.265Z,95.14
2022-12-29T01:18:05.261Z,95.14
2022-12-29T01:19:05.275Z,95.14
2022-12-29T01:20:05.251Z,95.18
2022-12-29T01:21:05.204Z,95.07
2022-12-29T01:22:05.196Z,95.14
2022-12-29T01:23:05.171Z,95.14
2022-12-29T01:24:05.183Z,95.14
2022-12-29T01:25:05.167Z,95.14
2022-12-29T01:26:05.141Z,95.14
2022-12-29T01:27:05.138Z,95.07
2022-12-29T01:28:05.127Z,95.07
2022-12-29T01:29:05.122Z,95.03
2022-12-29T01:30:05.109Z,95.03
2022-12-29T01:31:05.147Z,94.93
2022-12-29T01:32:05.096Z,94.98
2022-12-29T01:33:05.046Z,94.98
2022-12-29T01:34:05.054Z,94.98
2022-12-29T01:35:05.024Z,94.98
2022-12-29T01:36:05.011Z,94.98
2022-12-29T01:37:04.981Z,94.98
2022-12-29T01:38:04.982Z,94.98
2022-12-29T01:39:05.015Z,94.87
2022-12-29T01:40:04.961Z,94.87
2022-12-29T01:41:04.942Z,94.77
2022-12-29T01:42:04.918Z,94.87
2022-12-29T01:43:04.910Z,94.87
2022-12-29T01:44:04.902Z,94.87
2022-12-29T01:45:04.884Z,94.87
2022-12-29T01:46:04.926Z,94.98
2022-12-29T01:47:04.843Z,95.03
2022-12-29T01:48:04.847Z,94.98
2022-12-29T01:49:04.843Z,94.98
2022-12-29T01:50:04.803Z,94.87
2022-12-29T01:51:04.796Z,94.98
2022-12-29T01:52:04.788Z,95.07
2022-12-29T01:53:04.859Z,95.18
2022-12-29T01:54:04.775Z,95.18
2022-12-29T01:55:04.734Z,95.18
2022-12-29T01:56:04.735Z,95.18
2022-12-29T01:57:04.701Z,95.18
2022-12-29T01:58:04.702Z,95.28
2022-12-29T01:59:04.693Z,95.18
2022-12-29T02:00:04.689Z,95.28
2022-12-29T02:01:04.723Z,95.49
2022-12-29T02:02:04.685Z,95.59
2022-12-29T02:03:04.664Z,95.69
2022-12-29T02:04:04.613Z,95.69
2022-12-29T02:05:05.101Z,95.79
2022-12-29T02:06:04.596Z,95.90
2022-12-29T02:07:04.583Z,96.00
2022-12-29T02:08:04.578Z,95.90
2022-12-29T02:09:04.553Z,95.90
2022-12-29T02:10:04.552Z,95.90
2022-12-29T02:11:04.527Z,95.90
2022-12-29T02:12:04.526Z,95.90
2022-12-29T02:13:04.507Z,95.79
2022-12-29T02:14:04.487Z,95.79
2022-12-29T02:15:04.522Z,95.79
2022-12-29T02:16:04.562Z,95.79
2022-12-29T02:17:04.445Z,95.79
2022-12-29T02:18:04.433Z,95.79
2022-12-29T02:19:04.419Z,95.79
2022-12-29T02:20:04.413Z,95.79
2022-12-29T02:21:04.381Z,95.90
2022-12-29T02:22:04.364Z,95.79
2022-12-29T02:23:04.360Z,95.79
2022-12-29T02:24:04.406Z,95.69
2022-12-29T02:25:04.343Z,95.69
2022-12-29T02:26:04.312Z,95.59
2022-12-29T02:27:04.297Z,95.59
2022-12-29T02:28:04.270Z,95.59
2022-12-29T02:29:04.266Z,95.49
2022-12-29T02:30:04.282Z,95.49
2022-12-29T02:31:04.243Z,95.59
2022-12-29T02:32:04.341Z,95.69
2022-12-29T02:33:04.202Z,95.69
2022-12-29T02:34:04.193Z,95.59
2022-12-29T02:35:04.192Z,95.59
2022-12-29T02:36:04.182Z,95.39
2022-12-29T02:37:04.141Z,95.18
2022-12-29T02:38:04.139Z,95.07
2022-12-29T02:39:04.158Z,95.03
2022-12-29T02:40:04.129Z,95.18
2022-12-29T02:41:04.091Z,95.03
2022-12-29T02:42:04.091Z,95.03
2022-12-29T02:43:04.074Z,95.03
2022-12-29T02:44:04.060Z,95.03
2022-12-29T02:45:04.061Z,95.03
2022-12-29T02:46:04.096Z,95.07
2022-12-29T02:47:04.013Z,95.14
2022-12-29T02:48:04.009Z,95.18
2022-12-29T02:49:04.011Z,95.34
2022-12-29T02:50:03.982Z,95.65
2022-12-29T02:51:04.008Z,95.69
2022-12-29T02:52:03.960Z,95.79
2022-12-29T02:53:03.921Z,95.79
2022-12-29T02:54:03.937Z,95.79
2022-12-29T02:55:03.905Z,95.79
2022-12-29T02:56:03.917Z,96.00
2022-12-29T02:57:03.880Z,96.31
2022-12-29T02:58:03.870Z,96.41
2022-12-29T02:59:03.843Z,96.51
2022-12-29T03:00:03.852Z,96.82
2022-12-29T03:01:03.893Z,96.82
2022-12-29T03:02:03.968Z,96.82
2022-12-29T03:03:03.956Z,96.82
2022-12-29T03:04:03.781Z,96.92
2022-12-29T03:05:03.772Z,96.92
2022-12-29T03:06:03.793Z,97.03
2022-12-29T03:07:03.732Z,97.03
2022-12-29T03:08:03.734Z,97.03
2022-12-29T03:09:03.717Z,97.03
2022-12-29T03:10:03.718Z,97.03
2022-12-29T03:11:03.714Z,97.03
2022-12-29T03:12:03.665Z,96.92
2022-12-29T03:13:03.650Z,97.03
2022-12-29T03:14:03.668Z,97.03
2022-12-29T03:15:03.631Z,97.23
2022-12-29T03:16:03.679Z,97.33
2022-12-29T03:17:03.667Z,97.44
2022-12-29T03:18:03.611Z,97.44
2022-12-29T03:19:03.572Z,97.44
2022-12-29T03:20:03.598Z,97.44
2022-12-29T03:21:03.598Z,97.44
2022-12-29T03:22:03.547Z,97.44
2022-12-29T03:23:03.522Z,97.54
2022-12-29T03:24:03.500Z,97.74
2022-12-29T03:25:03.496Z,97.95
2022-12-29T03:26:03.511Z,98.05
2022-12-29T03:27:03.493Z,98.16
2022-12-29T03:28:03.462Z,98.16
2022-12-29T03:29:03.462Z,98.25
2022-12-29T03:30:03.461Z,98.25
2022-12-29T03:31:03.508Z,98.25
2022-12-29T03:32:03.480Z,98.25
2022-12-29T03:33:03.385Z,98.36
2022-12-29T03:34:03.419Z,98.46
2022-12-29T03:35:03.372Z,98.46
2022-12-29T03:36:03.371Z,98.57
2022-12-29T03:37:03.340Z,98.67
2022-12-29T03:38:03.315Z,98.67
2022-12-29T03:39:03.317Z,98.71
2022-12-29T03:40:03.330Z,98.87
2022-12-29T03:41:03.317Z,98.97
2022-12-29T03:42:03.274Z,99.08
2022-12-29T03:43:03.256Z,99.08
2022-12-29T03:44:03.259Z,99.18
2022-12-29T03:45:03.224Z,99.28
2022-12-29T03:46:03.282Z,99.28
2022-12-29T03:47:03.211Z,99.28
2022-12-29T03:48:03.181Z,99.28
2022-12-29T03:49:03.191Z,99.18
2022-12-29T03:50:03.151Z,99.18
2022-12-29T03:51:03.151Z,99.18
2022-12-29T03:52:03.141Z,99.08
2022-12-29T03:53:03.122Z,99.08
2022-12-29T03:54:03.122Z,99.08
2022-12-29T03:55:03.072Z,99.08
2022-12-29T03:56:03.081Z,99.08
2022-12-29T03:57:03.068Z,98.97
2022-12-29T03:58:03.052Z,98.97
2022-12-29T03:59:03.062Z,98.97
2022-12-29T04:00:03.028Z,98.87
2022-12-29T04:01:03.111Z,98.87
2022-12-29T04:02:03.171Z,98.77
2022-12-29T04:03:03.181Z,98.77
2022-12-29T04:04:02.982Z,98.77
2022-12-29T04:05:02.972Z,98.67
2022-12-29T04:06:02.974Z,98.67
2022-12-29T04:07:02.932Z,98.67
2022-12-29T04:08:02.913Z,98.57
2022-12-29T04:09:02.926Z,98.57
2022-12-29T04:10:02.903Z,98.57
2022-12-29T04:11:02.882Z,98.57
2022-12-29T04:12:02.885Z,98.67
2022-12-29T04:13:02.864Z,98.67
2022-12-29T04:14:02.851Z,98.67
2022-12-29T04:15:02.854Z,98.67
2022-12-29T04:16:02.865Z,98.67
2022-12-29T04:17:02.804Z,98.57
2022-12-29T04:18:02.796Z,98.57
2022-12-29T04:19:02.780Z,98.57
2022-12-29T04:20:02.784Z,98.46
2022-12-29T04:21:02.745Z,98.46
2022-12-29T04:22:02.742Z,98.46
2022-12-29T04:23:02.725Z,98.36
2022-12-29T04:24:02.717Z,98.36
2022-12-29T04:25:02.710Z,98.36
2022-12-29T04:26:02.681Z,98.36
2022-12-29T04:27:02.668Z,98.25
2022-12-29T04:28:02.662Z,98.25
2022-12-29T04:29:02.697Z,98.25
2022-12-29T04:30:02.657Z,98.16
2022-12-29T04:31:02.651Z,98.05
2022-12-29T04:32:02.602Z,97.95
2022-12-29T04:33:02.579Z,97.74
2022-12-29T04:34:02.568Z,97.74
2022-12-29T04:35:02.573Z,97.44
2022-12-29T04:36:02.567Z,97.23
2022-12-29T04:37:02.523Z,97.08
2022-12-29T04:38:02.523Z,97.08
2022-12-29T04:39:02.493Z,96.98
2022-12-29T04:40:02.484Z,96.88
2022-12-29T04:41:02.488Z,96.88
2022-12-29T04:42:02.458Z,96.88
2022-12-29T04:43:02.435Z,96.88
2022-12-29T04:44:02.439Z,96.88
2022-12-29T04:45:02.427Z,96.78
2022-12-29T04:46:02.586Z,96.67
2022-12-29T04:47:02.406Z,96.67
2022-12-29T04:48:02.375Z,96.78
2022-12-29T04:49:02.355Z,96.78
2022-12-29T04:50:02.420Z,96.78
2022-12-29T04:51:02.345Z,96.78
2022-12-29T04:52:02.317Z,96.78
2022-12-29T04:53:02.307Z,96.67
2022-12-29T04:54:02.295Z,96.78
2022-12-29T04:55:02.270Z,96.88
2022-12-29T04:56:02.268Z,96.98
2022-12-29T04:57:02.261Z,96.98
2022-12-29T04:58:02.240Z,97.08
2022-12-29T04:59:02.223Z,97.08
2022-12-29T05:00:02.232Z,97.08
2022-12-29T05:01:02.209Z,97.08
2022-12-29T05:02:02.399Z,97.08
2022-12-29T05:03:02.418Z,97.08
2022-12-29T05:04:02.368Z,97.08
2022-12-29T05:05:02.145Z,97.08
2022-12-29T05:06:02.140Z,97.08
2022-12-29T05:07:02.132Z,97.08
2022-12-29T05:08:02.236Z,97.08
2022-12-29T05:09:09.309Z,97.08
2022-12-29T05:10:02.074Z,97.08
2022-12-29T05:11:02.066Z,97.08
2022-12-29T05:12:02.064Z,97.08
2022-12-29T05:13:02.028Z,97.08
2022-12-29T05:14:02.023Z,97.08
2022-12-29T05:15:02.005Z,97.19
2022-12-29T05:16:02.020Z,97.19
2022-12-29T05:17:01.994Z,97.19
2022-12-29T05:18:01.959Z,96.88
2022-12-29T05:19:01.966Z,96.67
2022-12-29T05:20:01.939Z,96.67
2022-12-29T05:21:01.925Z,96.47
2022-12-29T05:22:01.943Z,96.37
2022-12-29T05:23:01.900Z,96.26
2022-12-29T05:24:01.876Z,96.16
2022-12-29T05:25:01.865Z,96.06
2022-12-29T05:26:01.864Z,95.95
2022-12-29T05:27:01.857Z,95.95
2022-12-29T05:28:01.876Z,95.86
2022-12-29T05:29:01.818Z,95.75
2022-12-29T05:30:01.786Z,95.75
2022-12-29T05:31:01.836Z,95.65
2022-12-29T05:32:01.777Z,95.44
2022-12-29T05:33:01.759Z,95.54
2022-12-29T05:34:01.745Z,95.34
2022-12-29T05:35:01.741Z,95.24
2022-12-29T05:36:01.718Z,95.24
2022-12-29T05:37:01.717Z,95.24
2022-12-29T05:38:01.668Z,95.34
2022-12-29T05:39:01.698Z,95.34
2022-12-29T05:40:01.694Z,95.44
2022-12-29T05:41:01.657Z,95.44
2022-12-29T05:42:01.646Z,95.14
2022-12-29T05:43:01.636Z,95.03
2022-12-29T05:44:01.621Z,95.03
2022-12-29T05:45:01.588Z,95.03
2022-12-29T05:46:01.558Z,95.03
2022-12-29T05:47:01.610Z,94.93
2022-12-29T05:48:01.582Z,94.62
2022-12-29T05:49:01.547Z,94.62
2022-12-29T05:50:01.618Z,94.62
2022-12-29T05:51:01.518Z,94.73
2022-12-29T05:52:01.516Z,94.73
2022-12-29T05:53:01.485Z,94.73
2022-12-29T05:54:01.493Z,94.62
2022-12-29T05:55:01.472Z,94.52
2022-12-29T05:56:01.446Z,93.90
2022-12-29T05:57:01.446Z,93.96
2022-12-29T05:58:01.412Z,93.96
2022-12-29T05:59:01.410Z,93.86
2022-12-29T06:00:01.390Z,93.86
2022-12-29T06:01:01.390Z,93.76
2022-12-29T06:02:01.595Z,93.55
2022-12-29T06:03:01.537Z,93.45
2022-12-29T06:04:01.549Z,93.25
2022-12-29T06:05:01.331Z,93.04
2022-12-29T06:06:01.303Z,93.15
2022-12-29T06:07:01.340Z,93.35
2022-12-29T06:08:01.344Z,93.04
2022-12-29T06:09:01.275Z,93.04
2022-12-29T06:10:01.260Z,93.15
2022-12-29T06:11:01.255Z,93.15
2022-12-29T06:12:01.253Z,93.04
2022-12-29T06:13:01.221Z,93.04
2022-12-29T06:14:01.201Z,93.25
2022-12-29T06:15:01.233Z,93.04
2022-12-29T06:16:01.228Z,92.74
2022-12-29T06:17:01.193Z,92.63
2022-12-29T06:18:01.148Z,92.63
2022-12-29T06:19:01.139Z,92.63
2022-12-29T06:20:01.131Z,92.63
2022-12-29T06:21:01.176Z,92.63
2022-12-29T06:22:01.117Z,92.83
2022-12-29T06:23:01.101Z,93.04
2022-12-29T06:24:01.060Z,93.04
2022-12-29T06:25:04.931Z,92.83
2022-12-29T06:26:01.042Z,92.74
2022-12-29T06:27:01.048Z,92.74
2022-12-29T06:28:01.007Z,93.04
2022-12-29T06:29:00.999Z,92.94
2022-12-29T06:30:00.989Z,92.83
2022-12-29T06:31:00.968Z,92.94
2022-12-29T06:32:01.057Z,92.94
2022-12-29T06:33:00.973Z,92.94
2022-12-29T06:34:06.457Z,92.83
2022-12-29T06:35:01.922Z,92.74
2022-12-29T06:36:00.893Z,92.63
2022-12-29T06:37:00.890Z,92.79
2022-12-29T06:38:00.894Z,92.59
2022-12-29T06:39:00.866Z,92.49
2022-12-29T06:40:00.848Z,92.59
2022-12-29T06:41:00.851Z,92.59
2022-12-29T06:42:00.823Z,92.59
2022-12-29T06:43:00.836Z,92.59
2022-12-29T06:44:00.802Z,92.38
2022-12-29T06:45:00.799Z,92.49
2022-12-29T06:46:00.871Z,92.28
2022-12-29T06:47:00.754Z,92.28
2022-12-29T06:48:00.764Z,92.28
2022-12-29T06:49:00.729Z,92.28
2022-12-29T06:50:00.711Z,92.49
2022-12-29T06:51:00.703Z,92.38
2022-12-29T06:52:00.702Z,92.28
2022-12-29T06:53:00.692Z,92.28
2022-12-29T06:54:00.661Z,92.38
2022-12-29T06:55:00.654Z,92.38
2022-12-29T06:56:00.623Z,92.49
2022-12-29T06:57:00.620Z,92.28
2022-12-29T06:58:00.612Z,92.38
2022-12-29T06:59:00.591Z,92.49
2022-12-29T07:00:00.596Z,92.38
2022-12-29T07:01:00.625Z,92.59
2022-12-29T07:02:00.792Z,92.59
2022-12-29T07:03:00.816Z,92.28
2022-12-29T07:04:00.520Z,92.18
2022-12-29T07:05:00.508Z,92.49
2022-12-29T07:06:00.508Z,92.59
2022-12-29T07:07:00.495Z,92.59
2022-12-29T07:08:00.493Z,92.59
2022-12-29T07:09:00.465Z,92.49
2022-12-29T07:10:00.444Z,92.79
2022-12-29T07:11:00.438Z,93.00
2022-12-29T07:12:00.420Z,92.90
2022-12-29T07:13:00.531Z,92.90
2022-12-29T07:14:02.410Z,92.79
2022-12-29T07:15:00.397Z,93.00
2022-12-29T07:16:00.404Z,93.00
2022-12-29T07:17:00.399Z,93.00
2022-12-29T07:18:00.359Z,93.00
2022-12-29T07:19:00.321Z,93.10
2022-12-29T07:20:00.333Z,93.10
2022-12-29T07:21:00.303Z,92.90
2022-12-29T07:22:00.286Z,92.90
2022-12-29T07:23:00.292Z,92.90
2022-12-29T07:24:00.419Z,93.00
2022-12-29T07:25:00.242Z,93.10
2022-12-29T07:26:00.225Z,93.10
2022-12-29T07:27:00.203Z,93.00
2022-12-29T07:28:00.232Z,93.10
2022-12-29T07:29:00.190Z,93.10
2022-12-29T07:30:00.228Z,93.10
2022-12-29T07:31:00.206Z,93.30
2022-12-29T07:32:00.256Z,93.20
2022-12-29T07:33:00.140Z,93.30
2022-12-29T07:34:00.157Z,93.20
2022-12-29T07:35:00.142Z,93.20
2022-12-29T07:36:00.081Z,93.30
2022-12-29T07:37:00.097Z,93.41
2022-12-29T07:38:00.074Z,93.30
2022-12-29T07:39:00.123Z,93.41
2022-12-29T07:40:00.059Z,93.51
2022-12-29T07:41:00.021Z,93.51
2022-12-29T07:42:04.848Z,93.62
2022-12-29T07:43:01.021Z,93.51
2022-12-29T07:43:59.980Z,93.51
2022-12-29T07:45:00.058Z,93.82
2022-12-29T07:46:00.031Z,93.82
2022-12-29T07:47:00.660Z,93.92
2022-12-29T07:47:59.951Z,94.12
2022-12-29T07:48:59.933Z,94.23
2022-12-29T07:49:59.892Z,94.43
2022-12-29T07:50:59.890Z,94.54
2022-12-29T07:51:59.875Z,94.54
2022-12-29T07:52:59.873Z,94.54
2022-12-29T07:53:59.843Z,94.74
2022-12-29T07:54:59.838Z,94.95
2022-12-29T07:55:59.811Z,95.05
2022-12-29T07:56:59.818Z,95.25
2022-12-29T07:57:59.808Z,95.36
2022-12-29T07:58:59.783Z,95.46
2022-12-29T07:59:59.773Z,95.87
2022-12-29T08:00:59.852Z,96.12
2022-12-29T08:01:59.825Z,96.22
2022-12-29T08:02:59.765Z,96.53
2022-12-29T08:03:59.878Z,96.83
2022-12-29T08:04:59.702Z,96.94
2022-12-29T08:05:59.685Z,97.14
2022-12-29T08:06:59.669Z,97.34
2022-12-29T08:07:59.678Z,96.94
2022-12-29T08:09:04.109Z,96.22
2022-12-29T08:10:00.623Z,96.42
2022-12-29T08:10:59.621Z,96.53
2022-12-29T08:11:59.612Z,96.63
2022-12-29T08:12:59.635Z,96.73
2022-12-29T08:13:59.572Z,96.73
2022-12-29T08:14:59.555Z,96.73
2022-12-29T08:15:59.577Z,96.63
2022-12-29T08:16:59.543Z,96.42
2022-12-29T08:17:59.533Z,96.12
2022-12-29T08:18:59.511Z,95.40
2022-12-29T08:19:59.486Z,94.78
2022-12-29T08:20:59.484Z,94.27
2022-12-29T08:21:59.456Z,94.17
2022-12-29T08:22:59.472Z,93.76
2022-12-29T08:23:59.435Z,93.51
2022-12-29T08:24:59.421Z,93.62
2022-12-29T08:25:59.405Z,93.62
2022-12-29T08:27:02.992Z,93.30
2022-12-29T08:28:00.402Z,92.59
2022-12-29T08:28:59.361Z,92.59
2022-12-29T08:29:59.371Z,92.49
2022-12-29T08:30:59.378Z,92.59
2022-12-29T08:31:59.319Z,92.28
2022-12-29T08:32:59.322Z,92.08
2022-12-29T08:33:59.289Z,91.56
2022-12-29T08:34:59.292Z,91.77
2022-12-29T08:35:59.276Z,91.87
2022-12-29T08:36:59.262Z,91.67
2022-12-29T08:37:59.247Z,91.05
2022-12-29T08:38:59.329Z,91.05
2022-12-29T08:39:59.234Z,91.46
2022-12-29T08:40:59.208Z,91.36
2022-12-29T08:41:59.180Z,91.26
2022-12-29T08:42:59.175Z,90.23
2022-12-29T08:43:59.233Z,90.13
2022-12-29T08:44:59.145Z,90.64
2022-12-29T08:45:59.271Z,90.95
2022-12-29T08:46:59.125Z,89.51
2022-12-29T08:47:59.107Z,89.51
2022-12-29T08:48:59.113Z,89.72
2022-12-29T08:49:59.073Z,89.92
2022-12-29T08:50:59.083Z,89.72
2022-12-29T08:51:59.062Z,89.62
2022-12-29T08:52:59.455Z,89.72
2022-12-29T08:53:59.049Z,89.31
2022-12-29T08:54:59.014Z,89.00
2022-12-29T08:56:04.011Z,89.31
2022-12-29T08:57:00.074Z,89.11
2022-12-29T08:57:58.970Z,89.21
2022-12-29T08:58:58.975Z,89.42
2022-12-29T08:59:58.943Z,89.62
2022-12-29T09:00:58.935Z,89.62
2022-12-29T09:01:59.084Z,89.62
2022-12-29T09:02:59.088Z,89.51
2022-12-29T09:04:16.578Z,89.51
2022-12-29T09:04:59.942Z,89.83
2022-12-29T09:05:58.873Z,90.44
2022-12-29T09:06:58.844Z,90.44
2022-12-29T09:07:58.838Z,90.44
2022-12-29T09:08:58.835Z,90.23
2022-12-29T09:09:58.805Z,90.34
2022-12-29T09:10:58.786Z,90.23
2022-12-29T09:11:58.773Z,90.34
2022-12-29T09:12:58.772Z,90.44
2022-12-29T09:13:58.771Z,90.54
2022-12-29T09:14:58.734Z,90.95
2022-12-29T09:15:58.776Z,90.54
2022-12-29T09:16:58.703Z,90.13
2022-12-29T09:17:58.693Z,90.03
2022-12-29T09:18:58.681Z,90.13
2022-12-29T09:19:58.663Z,90.23
2022-12-29T09:20:58.653Z,90.34
2022-12-29T09:21:58.641Z,90.44
2022-12-29T09:22:58.634Z,90.23
2022-12-29T09:23:58.629Z,90.13
2022-12-29T09:24:58.593Z,90.13
2022-12-29T09:25:58.613Z,90.34
2022-12-29T09:26:58.568Z,90.54
2022-12-29T09:27:58.567Z,90.64
2022-12-29T09:28:58.552Z,90.54
2022-12-29T09:29:58.528Z,90.34
2022-12-29T09:30:58.598Z,90.44
2022-12-29T09:31:58.557Z,90.34
2022-12-29T09:32:58.596Z,90.34
2022-12-29T09:33:58.510Z,90.23
2022-12-29T09:34:58.467Z,90.44
2022-12-29T09:35:58.450Z,90.84
2022-12-29T09:36:58.423Z,90.44
2022-12-29T09:37:58.433Z,90.23
2022-12-29T09:38:58.413Z,90.44
2022-12-29T09:39:58.387Z,90.95
2022-12-29T09:40:58.401Z,91.16
2022-12-29T09:41:58.365Z,91.26
2022-12-29T09:42:58.354Z,91.46
2022-12-29T09:43:58.353Z,91.56
2022-12-29T09:44:58.326Z,92.38
2022-12-29T09:45:58.312Z,92.59
2022-12-29T09:46:58.364Z,92.59
2022-12-29T09:47:58.284Z,92.49
2022-12-29T09:48:58.284Z,92.59
2022-12-29T09:49:58.275Z,92.55
2022-12-29T09:50:58.249Z,92.75
2022-12-29T09:51:58.243Z,92.96
2022-12-29T09:52:58.215Z,93.06
2022-12-29T09:53:58.225Z,93.06
2022-12-29T09:55:03.819Z,92.85
2022-12-29T09:55:59.179Z,92.75
2022-12-29T09:56:58.166Z,92.14
2022-12-29T09:57:58.146Z,91.83
2022-12-29T09:58:58.175Z,91.83
2022-12-29T09:59:58.154Z,91.83
2022-12-29T10:00:58.174Z,91.63
2022-12-29T10:01:58.418Z,91.31
2022-12-29T10:02:58.205Z,89.89
2022-12-29T10:03:58.073Z,89.78
2022-12-29T10:04:58.054Z,89.58
2022-12-29T10:05:58.074Z,88.86
2022-12-29T10:07:59.015Z,88.92
2022-12-29T10:08:58.005Z,88.31
2022-12-29T10:09:58.017Z,88.62
2022-12-29T10:10:58.018Z,88.71
2022-12-29T10:11:57.959Z,88.71
2022-12-29T10:12:57.976Z,88.82
2022-12-29T10:13:57.934Z,88.20
2022-12-29T10:14:57.934Z,88.41
2022-12-29T10:15:58.024Z,88.41
2022-12-29T10:16:57.905Z,88.00
2022-12-29T10:17:57.901Z,87.70
2022-12-29T10:18:57.899Z,88.31
2022-12-29T10:19:57.867Z,88.71
2022-12-29T10:20:57.840Z,88.62
2022-12-29T10:21:57.825Z,88.92
2022-12-29T10:22:57.807Z,88.82
2022-12-29T10:23:57.783Z,88.62
2022-12-29T10:24:57.818Z,88.71
2022-12-29T10:25:57.787Z,89.23
2022-12-29T10:26:57.778Z,89.33
2022-12-29T10:27:57.866Z,89.47
2022-12-29T10:28:57.742Z,89.37
2022-12-29T10:29:57.768Z,89.89
2022-12-29T10:30:57.706Z,90.19
2022-12-29T10:31:57.982Z,90.91
2022-12-29T10:32:57.709Z,91.22
2022-12-29T10:33:57.712Z,91.01
2022-12-29T10:34:57.663Z,90.60
2022-12-29T10:35:57.717Z,90.19
2022-12-29T10:36:57.644Z,90.60
2022-12-29T10:37:57.617Z,90.50
2022-12-29T10:38:57.612Z,90.50
2022-12-29T10:39:57.632Z,90.50
2022-12-29T10:40:57.565Z,90.60
2022-12-29T10:41:57.556Z,90.91
2022-12-29T10:42:57.537Z,90.70
2022-12-29T10:43:57.530Z,89.89
2022-12-29T10:44:57.560Z,89.98
2022-12-29T10:45:57.544Z,90.39
2022-12-29T10:46:57.494Z,90.81
2022-12-29T10:47:57.471Z,91.01
2022-12-29T10:48:57.474Z,91.22
2022-12-29T10:49:57.447Z,91.63
2022-12-29T10:51:01.784Z,91.63
2022-12-29T10:51:58.418Z,91.73
2022-12-29T10:52:57.411Z,91.52
2022-12-29T10:53:57.402Z,91.52
2022-12-29T10:54:57.381Z,91.63
2022-12-29T10:55:57.381Z,91.63
2022-12-29T10:56:57.368Z,91.93
2022-12-29T10:57:57.398Z,92.14
2022-12-29T10:58:57.321Z,92.03
2022-12-29T10:59:57.308Z,91.93
2022-12-29T11:00:57.451Z,91.83
2022-12-29T11:01:57.442Z,91.73
2022-12-29T11:02:57.420Z,91.63
2022-12-29T11:03:57.260Z,91.73
2022-12-29T11:04:57.249Z,91.52
2022-12-29T11:05:57.252Z,91.01
2022-12-29T11:06:57.227Z,91.01
2022-12-29T11:07:57.227Z,91.01
2022-12-29T11:08:57.193Z,91.42
2022-12-29T11:09:57.219Z,91.83
2022-12-29T11:10:57.185Z,91.93
2022-12-29T11:11:57.149Z,91.83
2022-12-29T11:12:57.143Z,91.42
2022-12-29T11:13:57.130Z,91.22
2022-12-29T11:14:57.108Z,91.31
2022-12-29T11:15:57.107Z,91.31
2022-12-29T11:16:57.160Z,91.42
2022-12-29T11:17:57.173Z,91.42
2022-12-29T11:18:57.056Z,91.42
2022-12-29T11:19:57.063Z,91.42
2022-12-29T11:20:57.078Z,90.09
2022-12-29T11:21:57.016Z,89.83
2022-12-29T11:22:56.990Z,89.78
2022-12-29T11:23:57.034Z,90.19
2022-12-29T11:24:56.977Z,90.30
2022-12-29T11:25:56.982Z,90.60
2022-12-29T11:26:56.947Z,89.47
2022-12-29T11:27:56.928Z,89.47
2022-12-29T11:28:56.910Z,89.98
2022-12-29T11:29:56.908Z,90.19
2022-12-29T11:30:56.901Z,89.78
2022-12-29T11:31:56.933Z,89.17
2022-12-29T11:32:56.887Z,89.37
2022-12-29T11:33:56.913Z,89.27
2022-12-29T11:34:56.835Z,89.58
2022-12-29T11:35:56.809Z,88.96
2022-12-29T11:36:56.818Z,88.86
2022-12-29T11:37:56.798Z,88.86
2022-12-29T11:38:56.789Z,88.76
2022-12-29T11:39:56.766Z,89.06
2022-12-29T11:40:56.752Z,88.96
2022-12-29T11:41:56.768Z,89.06
2022-12-29T11:42:56.790Z,89.06
2022-12-29T11:43:56.721Z,88.96
2022-12-29T11:44:56.830Z,89.06
2022-12-29T11:45:56.796Z,89.17
2022-12-29T11:46:56.764Z,89.47
2022-12-29T11:47:56.687Z,89.47
2022-12-29T11:48:56.649Z,88.65
2022-12-29T11:49:56.637Z,88.35
2022-12-29T11:50:56.634Z,88.65
2022-12-29T11:51:56.630Z,88.76
2022-12-29T11:52:56.619Z,88.86
2022-12-29T11:53:56.592Z,88.82
2022-12-29T11:54:56.573Z,88.51
2022-12-29T11:55:56.574Z,88.31
2022-12-29T11:56:56.570Z,88.31
2022-12-29T11:57:56.528Z,88.51
2022-12-29T11:58:56.590Z,88.51
2022-12-29T11:59:56.557Z,88.00
2022-12-29T12:00:56.488Z,88.51
2022-12-29T12:01:56.708Z,85.55
2022-12-29T12:02:56.528Z,84.22
2022-12-29T12:03:56.543Z,83.70
2022-12-29T12:04:56.460Z,84.52
2022-12-29T12:05:56.419Z,84.83
2022-12-29T12:06:56.438Z,83.91
2022-12-29T12:07:56.408Z,83.29
2022-12-29T12:08:56.385Z,83.70
2022-12-29T12:09:59.107Z,88.37
2022-12-29T12:10:56.367Z,83.76
2022-12-29T12:11:56.393Z,82.95
2022-12-29T12:12:56.338Z,83.25
2022-12-29T12:13:56.321Z,81.72
2022-12-29T12:14:56.308Z,81.93
2022-12-29T12:15:57.220Z,81.82
2022-12-29T12:16:56.439Z,83.25
2022-12-29T12:17:56.349Z,81.93
2022-12-29T12:18:56.250Z,81.62
2022-12-29T12:19:56.243Z,81.35
2022-12-29T12:20:56.260Z,80.43
2022-12-29T12:21:56.313Z,80.12
2022-12-29T12:22:56.179Z,80.33
2022-12-29T12:23:56.222Z,79.61
2022-12-29T12:24:56.159Z,79.71
2022-12-29T12:25:56.149Z,78.89
2022-12-29T12:26:56.167Z,78.28
2022-12-29T12:27:56.140Z,77.36
2022-12-29T12:28:56.149Z,77.53
2022-12-29T12:29:56.176Z,79.06
2022-12-29T12:30:56.178Z,78.75
2022-12-29T12:31:56.079Z,78.45
2022-12-29T12:32:56.099Z,77.22
2022-12-29T12:33:56.052Z,77.01
2022-12-29T12:34:56.039Z,77.01
2022-12-29T12:35:56.024Z,77.12
2022-12-29T12:36:56.023Z,76.81
2022-12-29T12:37:56.021Z,76.81
2022-12-29T12:38:56.009Z,77.42
2022-12-29T12:39:55.976Z,77.70
2022-12-29T12:40:55.964Z,76.26
2022-12-29T12:41:55.952Z,75.99
2022-12-29T12:42:55.955Z,75.96
2022-12-29T12:43:55.910Z,76.98
2022-12-29T12:44:55.906Z,75.48
2022-12-29T12:45:55.942Z,74.87
2022-12-29T12:46:56.004Z,74.87
2022-12-29T12:47:55.890Z,75.45
2022-12-29T12:48:55.866Z,76.40
2022-12-29T12:49:55.874Z,76.67
2022-12-29T12:50:55.810Z,75.89
2022-12-29T12:51:59.672Z,75.68
2022-12-29T12:52:56.861Z,75.38